Latest Weather Observations for Horn Island

IDQ60801

Issued at 4:22 am EST Friday 7 October 2022 (issued every 10 minutes, with the page automatically refreshed every 10 minutes)

About weather observations | Map of weather stations | Latest weather observations for QLD | Other Formats
Station Details ID: 027058 Name: HORN ISLAND Lat: -10.58 Lon: 142.29 Height: 4.0 m
Data from the previous 72 hours. | See also: Recent months at Horn Island
Date/Time
EST
Temp
°C
App
Temp
°C
Dew
Point
°C
Rel
Hum
%
Delta-T
°C
Wind Press
QNH
hPa
Press
MSL
hPa
Rain since
9am
mm
Dir  Spd
km/h
Gust
km/h
Spd
kts
Gust
kts
07/04:00am 27.5 29.1 23.3 78 2.9 SE 20 28 11 15 1008.5 1008.5 0.0
07/03:30am 27.4 28.1 23.0 77 3.0 SE 24 39 13 21 1008.6 1008.6 0.0
07/03:00am 27.4 27.6 22.8 76 3.1 ESE 26 35 14 19 1008.8 1008.8 0.0
07/02:30am 27.4 28.1 23.0 77 3.0 SE 24 37 13 20 1009.0 1009.0 0.0
07/02:00am 27.5 28.3 23.1 77 3.0 SE 24 32 13 17 1009.0 1009.0 0.0
07/01:30am 27.5 28.6 23.1 77 3.0 SE 22 35 12 19 1009.7 1009.7 0.0
07/01:00am 27.7 28.1 23.1 76 3.1 SE 26 35 14 19 1010.0 1010.0 0.0
07/12:30am 27.8 29.4 23.2 76 3.1 SSE 20 30 11 16 1010.3 1010.3 0.0
07/12:00am 27.7 29.5 23.3 77 3.0 SE 19 28 10 15 1010.8 1010.8 0.0
 
Date/Time
EST
Temp
°C
App
Temp
°C
Dew
Point
°C
Rel
Hum
%
Delta-T
°C
Wind Press
QNH
hPa
Press
MSL
hPa
Rain since
9am
mm
Dir  Spd
km/h
Gust
km/h
Spd
kts
Gust
kts
06/11:30pm 27.7 29.5 23.3 77 3.0 SE 19 28 10 15 1011.0 1011.0 0.0
06/11:00pm 27.8 29.4 23.2 76 3.1 SE 20 33 11 18 1011.2 1011.2 0.0
06/10:30pm 27.9 29.3 23.5 77 3.0 SE 22 30 12 16 1011.3 1011.3 0.0
06/10:00pm 27.7 29.3 23.3 77 3.0 SE 20 28 11 15 1011.2 1011.2 0.0
06/09:30pm 27.8 29.0 23.2 76 3.1 SE 22 32 12 17 1011.0 1011.0 0.0
06/09:00pm 27.9 29.3 22.8 74 3.5 SE 20 32 11 17 1010.8 1010.8 0.0
06/08:30pm 28.2 29.2 22.9 73 3.6 SE 22 30 12 16 1010.7 1010.7 0.0
06/08:00pm 28.1 29.4 22.6 72 3.7 SE 20 32 11 17 1010.3 1010.3 0.0
06/07:30pm 28.3 28.7 22.5 71 3.9 SE 24 35 13 19 1010.0 1010.0 0.0
06/07:00pm 28.3 29.1 22.5 71 3.9 SE 22 30 12 16 1009.7 1009.7 0.0
06/06:30pm 28.4 29.4 22.9 72 3.7 SE 22 32 12 17 1009.1 1009.1 0.0
06/06:00pm 29.0 28.1 22.2 66 4.6 ESE 30 43 16 23 1008.6 1008.6 0.0
06/05:30pm 29.5 29.0 22.2 65 4.9 SE 28 39 15 21 1008.3 1008.3 0.0
06/05:00pm 30.3 30.3 23.0 65 5.0 ESE 28 44 15 24 1008.0 1008.0 0.0
06/04:30pm 30.6 30.2 23.0 64 5.2 SE 30 41 16 22 1007.8 1007.8 0.0
06/04:00pm 30.3 29.5 23.0 65 5.0 ESE 32 41 17 22 1008.0 1008.0 0.0
06/03:30pm 31.1 29.9 22.7 61 5.7 ESE 33 46 18 25 1008.2 1008.2 0.0
06/03:00pm 31.4 30.4 23.0 61 5.8 ESE 33 46 18 25 1008.5 1008.5 0.0
06/02:30pm 30.5 29.4 22.9 64 5.2 ESE 33 44 18 24 1008.8 1008.8 0.0
06/02:00pm 31.8 31.2 23.3 60 5.9 SE 32 39 17 21 1009.3 1009.3 0.0
06/01:30pm 31.1 30.1 22.7 61 5.7 ESE 32 43 17 23 1009.7 1009.7 0.0
06/01:00pm 30.5 29.6 22.9 64 5.2 ESE 32 41 17 22 1010.4 1010.4 0.0
06/12:30pm 31.0 30.5 22.9 62 5.6 ESE 30 39 16 21 1011.0 1011.0 0.0
06/12:00pm 30.9 30.3 23.3 64 5.2 ESE 32 39 17 21 1011.5 1011.5 0.0
06/11:30am 29.1 30.0 24.0 74 3.5 SE 26 37 14 20 1012.0 1012.0 0.0
06/11:07am 28.0 26.8 22.7 73 3.6 ESE 33 56 18 30 1012.3 1012.3 0.0
06/11:00am 30.0 30.0 23.7 69 4.4 ESE 30 39 16 21 1012.1 1012.1 0.0
06/10:30am 29.3 29.3 23.0 69 4.3 ESE 28 37 15 20 1012.5 1012.5 0.0
06/10:00am 30.0 30.6 23.4 67 4.5 ESE 26 37 14 20 1012.6 1012.6 0.0
06/09:30am 30.0 30.1 23.2 67 4.7 ESE 28 39 15 21 1012.7 1012.7 0.0
06/09:00am 29.0 29.1 23.2 71 4.0 ESE 28 35 15 19 1012.6 1012.6 0.0
06/08:30am 28.4 30.2 24.2 78 2.9 ESE 22 33 12 18 1012.2 1012.2 0.0
06/08:00am 28.2 29.1 23.3 75 3.4 ESE 24 35 13 19 1012.0 1012.0 0.0
06/07:30am 27.9 28.7 23.1 75 3.3 ESE 24 35 13 19 1011.5 1011.5 0.0
06/07:00am 27.8 29.6 23.2 76 3.1 SE 19 28 10 15 1011.2 1011.2 0.0
06/06:30am 27.6 29.3 23.0 76 3.1 SE 19 26 10 14 1010.9 1010.9 0.0
06/06:00am 27.6 28.3 23.0 76 3.1 SE 24 32 13 17 1010.7 1010.7 0.0
06/05:30am 27.7 28.4 22.9 75 3.3 SE 24 33 13 18 1010.2 1010.2 0.0
06/05:00am 27.5 28.2 22.9 76 3.1 ESE 24 35 13 19 1010.0 1010.0 0.0
06/04:30am 27.4 27.4 23.0 77 3.0 ESE 28 39 15 21 1009.4 1009.4 0.0
06/04:00am 27.6 27.8 22.8 75 3.3 ESE 26 39 14 21 1009.2 1009.2 0.0
06/03:30am 27.5 28.3 23.1 77 3.0 ESE 24 37 13 20 1009.3 1009.3 0.0
06/03:00am 27.6 28.3 23.0 76 3.1 ESE 24 33 13 18 1009.8 1009.8 0.0
06/02:30am 27.7 28.5 23.1 76 3.1 SE 24 37 13 20 1010.0 1010.0 0.0
06/02:00am 27.7 27.3 23.1 76 3.1 ESE 30 43 16 23 1010.4 1010.4 0.0
06/01:30am 27.7 27.1 23.3 77 3.0 ESE 32 44 17 24 1010.6 1010.6 0.0
06/01:00am 27.4 28.3 23.4 79 2.7 ESE 24 39 13 21 1011.0 1011.0 0.0
06/12:30am 27.6 27.6 23.0 76 3.1 SE 28 44 15 24 1011.2 1011.2 0.0
06/12:00am 27.7 28.6 23.3 77 3.0 SE 24 35 13 19 1011.5 1011.5 0.0
 
Date/Time
EST
Temp
°C
App
Temp
°C
Dew
Point
°C
Rel
Hum
%
Delta-T
°C
Wind Press
QNH
hPa
Press
MSL
hPa
Rain since
9am
mm
Dir  Spd
km/h
Gust
km/h
Spd
kts
Gust
kts
05/11:30pm 27.6 27.7 23.2 77 3.0 SE 28 35 15 19 1011.9 1011.9 0.0
05/11:00pm 27.7 26.7 22.6 74 3.5 ESE 32 43 17 23 1012.0 1012.0 0.0
05/10:30pm 27.7 28.6 23.3 77 3.0 ESE 24 33 13 18 1012.3 1012.3 0.0
05/10:00pm 27.8 27.9 23.2 76 3.1 SE 28 39 15 21 1012.4 1012.4 0.0
05/09:30pm 27.7 27.7 23.1 76 3.1 SE 28 39 15 21 1012.2 1012.2 0.0
05/09:00pm 27.7 28.6 23.3 77 3.0 SE 24 35 13 19 1012.1 1012.1 0.0
05/08:30pm 27.6 28.4 23.2 77 3.0 SE 24 33 13 18 1012.1 1012.1 0.0
05/08:00pm 27.2 28.0 23.2 79 2.7 SE 24 37 13 20 1011.7 1011.7 0.0
05/07:30pm 27.4 28.6 23.2 78 2.9 SE 22 33 12 18 1011.1 1011.1 0.0
05/07:00pm 27.2 29.4 23.9 82 2.3 SE 19 24 10 13 1011.1 1011.1 0.0
05/06:30pm 26.8 28.8 23.9 84 2.0 SE 20 28 11 15 1010.6 1010.6 0.0
05/06:00pm 26.0 26.1 24.0 89 1.4 ESE 30 41 16 22 1010.4 1010.4 0.0
05/05:30pm 27.6 28.1 24.0 81 2.5 ESE 28 39 15 21 1009.7 1009.7 0.0
05/05:00pm 27.7 28.1 23.7 79 2.8 ESE 28 39 15 21 1009.3 1009.3 0.0
05/04:30pm 29.1 27.8 23.1 70 4.1 ESE 35 50 19 27 1009.0 1009.0 0.0
05/04:00pm 30.4 29.1 23.1 65 5.0 ESE 35 48 19 26 1008.7 1008.7 0.0
05/03:30pm 31.2 29.7 22.8 61 5.8 ESE 35 46 19 25 1008.4 1008.4 0.0
05/03:00pm 31.7 30.4 23.2 60 5.9 ESE 35 54 19 29 1008.5 1008.5 0.0
05/02:53pm 31.3 29.7 22.6 60 5.9 ESE 35 54 19 29 1008.6 1008.6 0.0
05/02:30pm 32.2 31.4 23.4 59 6.1 ESE 33 44 18 24 1008.7 1008.7 0.0
05/02:00pm 31.8 30.4 23.6 62 5.7 ESE 37 52 20 28 1009.0 1009.0 0.0
05/01:30pm 31.9 30.3 23.2 60 6.0 ESE 37 50 20 27 1009.5 1009.5 0.0
05/01:00pm 31.6 29.8 22.9 60 6.0 ESE 37 48 20 26 1010.1 1010.1 0.0
05/12:30pm 32.0 30.2 23.0 59 6.2 ESE 37 46 20 25 1010.5 1010.5 0.0
05/12:00pm 32.3 31.1 23.3 59 6.2 ESE 35 46 19 25 1011.0 1011.0 0.0
05/11:30am 31.4 30.3 23.5 63 5.5 ESE 35 43 19 23 1011.3 1011.3 0.0
05/11:00am 31.7 30.2 23.5 62 5.7 ESE 37 50 20 27 1011.5 1011.5 0.0
05/10:30am 31.4 30.1 23.2 61 5.6 ESE 35 46 19 25 1011.6 1011.6 0.0
05/10:00am 30.9 29.4 23.5 64 5.1 ESE 37 50 20 27 1011.9 1011.9 0.0
05/09:30am 30.5 29.5 23.7 67 4.7 ESE 35 46 19 25 1012.0 1012.0 0.0
05/09:00am 29.9 29.0 23.1 67 4.7 ESE 33 46 18 25 1012.0 1012.0 0.0
05/08:30am 29.8 29.3 23.5 69 4.3 ESE 32 46 17 25 1011.8 1011.8 0.0
05/08:00am 29.0 28.8 23.4 72 3.8 SE 30 44 16 24 1011.6 1011.6 0.0
05/07:30am 28.7 28.6 23.6 74 3.5 SE 30 41 16 22 1011.1 1011.1 0.0
05/07:00am 28.0 28.9 23.4 76 3.2 ESE 24 35 13 19 1010.6 1010.6 0.0
05/06:30am 27.6 27.8 23.4 78 2.9 ESE 28 39 15 21 1010.3 1010.3 0.0
05/06:00am 27.5 28.5 23.5 79 2.7 SE 24 33 13 18 1010.2 1010.2 0.0
05/05:30am 27.6 28.9 23.4 78 2.9 SE 22 35 12 19 1009.9 1009.9 0.0
05/05:00am 27.5 28.5 23.5 79 2.7 ESE 24 33 13 18 1009.9 1009.9 0.0
05/04:30am 27.4 29.1 23.4 79 2.7 SE 20 30 11 16 1009.6 1009.6 0.0
05/04:00am 27.4 29.9 23.2 78 2.9 SE 15 24 8 13 1009.7 1009.7 0.0
05/03:30am 27.5 28.3 23.1 77 3.0 SE 24 35 13 19 1009.6 1009.6 0.0
05/03:00am 27.6 28.4 23.2 77 3.0 SE 24 33 13 18 1009.6 1009.6 0.0
05/02:30am 27.7 29.2 23.1 76 3.1 SE 20 28 11 15 1009.6 1009.6 0.0
05/02:00am 27.6 29.1 23.0 76 3.1 SE 20 30 11 16 1009.5 1009.5 0.0
05/01:30am 27.7 28.5 23.1 76 3.1 SE 24 35 13 19 1009.6 1009.6 0.0
05/01:00am 27.6 29.5 23.8 80 2.6 SE 20 32 11 17 1010.1 1010.1 0.0
05/12:30am 27.7 28.3 23.5 78 2.9 ESE 26 39 14 21 1010.4 1010.4 0.0
05/12:00am 27.8 28.2 23.2 76 3.1 ESE 26 39 14 21 1010.7 1010.7 0.0
 
Date/Time
EST
Temp
°C
App
Temp
°C
Dew
Point
°C
Rel
Hum
%
Delta-T
°C
Wind Press
QNH
hPa
Press
MSL
hPa
Rain since
9am
mm
Dir  Spd
km/h
Gust
km/h
Spd
kts
Gust
kts
04/11:30pm 27.8 28.5 23.0 75 3.3 SE 24 35 13 19 1010.9 1010.9 0.0
04/11:00pm 27.7 28.2 23.3 77 3.0 SE 26 37 14 20 1011.1 1011.1 0.0
04/10:30pm 27.8 27.9 23.2 76 3.1 SE 28 44 15 24 1011.2 1011.2 0.0
04/10:00pm 27.9 28.0 23.3 76 3.1 SE 28 48 15 26 1011.3 1011.3 0.0
04/09:51pm 27.9 27.6 23.3 76 3.1 SE 30 48 16 26 1011.2 1011.2 0.0
04/09:30pm 27.8 28.4 23.4 77 3.0 SE 26 43 14 23 1011.0 1011.0 0.0
04/09:00pm 27.9 28.5 23.5 77 3.0 SE 26 39 14 21 1011.1 1011.1 0.0
04/08:30pm 28.0 28.2 23.4 76 3.2 SE 28 39 15 21 1011.0 1011.0 0.0
04/08:00pm 28.0 28.4 23.2 75 3.3 SE 26 37 14 20 1010.7 1010.7 0.0
04/07:30pm 28.1 28.4 23.0 74 3.5 SE 26 41 14 22 1010.2 1010.2 0.0
04/07:00pm 28.2 28.2 23.1 74 3.5 SE 28 39 15 21 1009.7 1009.7 0.0
04/06:30pm 28.3 28.7 23.2 74 3.5 SE 26 41 14 22 1009.5 1009.5 0.0
04/06:00pm 28.8 28.8 23.0 71 4.0 SE 28 39 15 21 1009.5 1009.5 0.0
04/05:30pm 29.1 29.1 23.1 70 4.1 SE 28 37 15 20 1009.3 1009.3 0.0
04/05:00pm 29.6 29.6 23.1 68 4.5 ESE 28 39 15 21 1009.0 1009.0 0.0
04/04:30pm 29.7 28.5 22.7 66 4.8 ESE 33 44 18 24 1008.9 1008.9 0.0
04/04:00pm 30.3 29.1 22.7 64 5.2 SE 33 46 18 25 1008.7 1008.7 0.0
04/03:30pm 31.1 30.0 23.5 64 5.3 ESE 35 48 19 26 1009.0 1009.0 0.0
04/03:00pm 31.3 30.9 23.7 64 5.3 ESE 32 44 17 24 1008.8 1008.8 0.0
04/02:30pm 30.8 29.5 23.2 64 5.2 ESE 35 46 19 25 1008.9 1008.9 0.0
04/02:00pm 31.3 29.5 22.9 61 5.8 ESE 37 48 20 26 1008.9 1008.9 0.0
04/01:30pm 33.2 32.5 23.5 56 6.7 ESE 33 46 18 25 1009.3 1009.3 0.0
04/01:00pm 31.9 30.9 23.7 62 5.7 ESE 35 50 19 27 1009.6 1009.6 0.0
04/12:30pm 31.5 30.2 23.1 61 5.8 ESE 35 48 19 26 1009.9 1009.9 0.0
04/12:00pm 31.2 30.4 23.3 63 5.5 ESE 33 43 18 23 1010.4 1010.4 0.0
04/11:30am 30.9 29.9 23.0 62 5.4 ESE 33 43 18 23 1010.7 1010.7 0.0
04/11:00am 30.8 29.5 23.2 64 5.2 ESE 35 44 19 24 1011.0 1011.0 0.0
04/10:30am 30.5 29.7 23.4 66 4.9 ESE 33 43 18 23 1011.4 1011.4 0.0
04/10:00am 31.3 30.5 23.1 61 5.6 ESE 32 41 17 22 1011.8 1011.8 0.0
04/09:30am 30.6 29.9 22.5 62 5.5 ESE 30 41 16 22 1011.8 1011.8 0.0
04/09:00am 29.0 27.9 22.5 68 4.4 ESE 32 41 17 22 1012.0 1012.0 0.0
04/08:30am 28.9 28.0 22.9 70 4.1 ESE 32 41 17 22 1011.9 1011.9 0.0
04/08:00am 28.8 28.5 22.5 68 4.3 ESE 28 39 15 21 1011.7 1011.7 0.0
04/07:30am 28.5 28.4 22.3 69 4.2 ESE 26 39 14 21 1011.4 1011.4 0.0
04/07:00am 27.8 27.4 22.3 72 3.7 E 28 35 15 19 1011.2 1011.2 0.0
04/06:30am 27.5 27.4 22.2 73 3.6 ESE 26 37 14 20 1010.8 1010.8 0.0
04/06:00am 27.3 27.1 22.0 73 3.6 ESE 26 37 14 20 1010.3 1010.3 0.0
04/05:30am 27.2 26.7 22.2 74 3.4 ESE 28 39 15 21 1009.6 1009.6 0.0
04/05:00am 27.3 27.2 22.9 77 3.0 ESE 28 37 15 20 1009.2 1009.2 0.0
04/04:30am 27.3 26.9 22.3 74 3.4 ESE 28 39 15 21 1009.1 1009.1 0.0

Other formats

Comma delimited format used in spreadsheet applications
http://www.bom.gov.au/fwo/IDQ60801/IDQ60801.94174.axf

JavaScript Object Notation format (JSON) in row-major order
http://www.bom.gov.au/fwo/IDQ60801/IDQ60801.94174.json

Data quality

Most of these data are generated automatically and are frequently updated. Quality checks on data are not normally performed. It is possible for incorrect values to appear. Refer to information at About Latest Weather Observations and please check the disclaimer before using these data.